Thursday, April 28, 2016
21:50 UTC
  |  Log In   |  Register Free
Airport Search:

Independence Municipal Airport
(KIDP)

FAA data valid effective Mar 31 2016 - May 26 2016 (unless otherwise noted).

 
 
 
 
 
 
 
 
 
 
 
 
 
 
Current Aviation Weather for KIDP

Weather Summary


The most recent METAR observation for IDP was updated at: 12:55 UTC
METAR for KIDP is not available. Closest METAR is for KCFV
KIDP  (most recent observation was updatred at 28:21 UTC)
282135Z AUTO 08004KT 10SM CLR 19/07 A2996 RMK AO2

KCFV  (10.6 nm NW)   (most recent observation was updated at 28:20 UTC)
282052Z AUTO VRB03KT 10SM CLR 19/08 A2996 RMK AO2 SLP145 T01940078 58005

KPPF  (16.6 nm SW)   (most recent observation was updated at 28:20 UTC)
282052Z AUTO 00000KT 10SM CLR 19/08 A2998 RMK AO2 SLP147 T01940083 58004

TAF for KIDP is not available.
KBVO  (26.2 nm NE)   (most recent observation was updatred at 28:17 UTC)
281720Z 2818/2918 04007KT P6SM SCT250 FM291200 06009KT P6SM OVC050 FM291500 09011G18KT P6SM OVC025 PROB30 2915/2918 TS OVC025CB


KCNU  (33.7 nm SW)   (most recent observation was updatred at 28:17 UTC)
281739Z 2818/2918 32010KT P6SM BKN250 FM290000 06007KT P6SM SCT100 SCT250 FM291200 07012KT P6SM VCSH SCT050 BKN090


GlobalAir.com is loading additional information.
 Current Weather at IDP
64.0 F° (18.0 C°)

North winds at 0.0 mph
Pressure:
29.99 in
Humidity:
46%
Wind:
North at 0.0 mph
Dew Point:
42.8 F° (6.0 C°)
Visibility:
10.00 mi
IDP NOAA Radar




Find All Airport Services Find A Hotel Find A Rental Car Find A Golf Course Find A Restaurant $100 Hamburger



Airport Weather Forecast for KIDP

Translated METAR for KIDP (2135 UTC)
METAR:
KIDP 282135Z AUTO 08004KT 10SM CLR 19/07 A2996 RMK AO2
Conditions at:
KIDP (Independence Muni, KS) observed 2135 UTC 28 April 2016
Temperature:
19°C (66.2°F)
Dewpoint:
7°C (44.6°F) [RH = 45.6]
Pressure:
29.96 inches Hg (1014.6 mb)
Winds:
from the E (080 degrees) at 4.6 mph (4 knots: 2.1 m/s)
Visibility:
10 mile(s)
Ceiling:
at least 12,000 feet AGL
Clouds:
Clear below 12,000 feet AGL
Remarks:
site is un-manned
site is automated and HAS a precipitation sensor

Translated TAF for KBVO (Bartlesville Muni, OK) (1720 UTC)
TAF text:
KBVO 281720Z 2818/2918 04007KT P6SM SCT250
Forecast period:
Thursday Apr 28 2016 18:00 UTC - Friday Apr 29 2016 18:00 UTC
Forecast type:
FROM: standard forecast or significant change
Winds:
from the NE (040 degrees) at 8.1 mph (7 knots: 3.6 m/s)
Visibility:
6 or more mile(s) (9.7+ km)
Ceiling:
at least 12,000 feet AGL
Clouds:
Scattered Clouds at 25,000 feet AGL
Weather:
no significant weather observed at this time
TAF text:
FM291200 06009KT P6SM OVC050
Forecast period:
Friday Apr 29 2016 12:00 UTC - Friday Apr 29 2016 15:00 UTC
Forecast type:
FROM: standard forecast or significant change
Winds:
from the ENE (060 degrees) at 10.4 mph (9 knots: 4.6 m/s)
Visibility:
6 or more mile(s) (9.7+ km)
Ceiling:
5,000 feet AGL
Clouds:
Overcast Skies at 5,000 feet AGL
Weather:
no significant weather observed at this time
TAF text:
FM291500 09011G18KT P6SM OVC025 PROB30 2915/2918 TS OVC025CB
Forecast period:
Friday Apr 29 2016 15:00 UTC - Friday Apr 29 2016 18:00 UTC
Forecast type:
FROM: standard forecast or significant change
Winds:
from the E (090 degrees) at 12.7 mph (11 knots: 5.7 m/s)
gusting to 20.7 mph (18 knots: 9.3 m/s)
Visibility:
6 or more mile(s) (9.7+ km)
Ceiling:
2,500 feet AGL
Clouds:
Overcast Skies at 2,500 feet AGL
Weather:
Moderate Partial
FBO's on the Field
FBO Company Facility Photos Services Transportation Aviation Fuel Prices: Prices include tax
Catering Weather Repair Courtesy Rental Type 100LL JetA JetA+ MOGAS 8087
 
City of Independence

This FBO has not yet been rated
FS:Phillips 66
Last Updated: Apr-11
Login to update fuel prices
SS:
Contact City of IndependenceMore FBO Information
 
Add another FBO Facility Photos Catering Weather Repair Courtesy Rental Type 100LL JetA JetA+ MOGAS 8087
Services Transportation Aviation Fuel Prices: Prices include tax


model-print
model-print
model-print
model-print